Map

Track Data

SID SEASON NUMBER BASIN SUBBASIN NAME ISO_TIME NATURE LAT LON WMO_WIND WMO_PRES WMO_AGENCY TRACK_TYPE DIST2LAND LANDFALL IFLAG USA_AGENCY USA_ATCF_ID USA_LAT USA_LON USA_RECORD USA_STATUS USA_WIND USA_PRES USA_SSHS USA_R34_NE USA_R34_SE USA_R34_SW USA_R34_NW USA_R50_NE USA_R50_SE USA_R50_SW USA_R50_NW USA_R64_NE USA_R64_SE USA_R64_SW USA_R64_NW USA_POCI USA_ROCI USA_RMW USA_EYE TOKYO_LAT TOKYO_LON TOKYO_GRADE TOKYO_WIND TOKYO_PRES TOKYO_R50_DIR TOKYO_R50_LONG TOKYO_R50_SHORT TOKYO_R30_DIR TOKYO_R30_LONG TOKYO_R30_SHORT TOKYO_LAND CMA_LAT CMA_LON CMA_CAT CMA_WIND CMA_PRES HKO_LAT HKO_LON HKO_CAT HKO_WIND HKO_PRES NEWDELHI_LAT NEWDELHI_LON NEWDELHI_GRADE NEWDELHI_WIND NEWDELHI_PRES NEWDELHI_CI NEWDELHI_DP NEWDELHI_POCI REUNION_LAT REUNION_LON REUNION_TYPE REUNION_WIND REUNION_PRES REUNION_TNUM REUNION_CI REUNION_RMW REUNION_R34_NE REUNION_R34_SE REUNION_R34_SW REUNION_R34_NW REUNION_R50_NE REUNION_R50_SE REUNION_R50_SW REUNION_R50_NW REUNION_R64_NE REUNION_R64_SE REUNION_R64_SW REUNION_R64_NW BOM_LAT BOM_LON BOM_TYPE BOM_WIND BOM_PRES BOM_TNUM BOM_CI BOM_RMW BOM_R34_NE BOM_R34_SE BOM_R34_SW BOM_R34_NW BOM_R50_NE BOM_R50_SE BOM_R50_SW BOM_R50_NW BOM_R64_NE BOM_R64_SE BOM_R64_SW BOM_R64_NW BOM_ROCI BOM_POCI BOM_EYE BOM_POS_METHOD BOM_PRES_METHOD NADI_LAT NADI_LON NADI_CAT NADI_WIND NADI_PRES WELLINGTON_LAT WELLINGTON_LON WELLINGTON_WIND WELLINGTON_PRES DS824_LAT DS824_LON DS824_STAGE DS824_WIND DS824_PRES TD9636_LAT TD9636_LON TD9636_STAGE TD9636_WIND TD9636_PRES TD9635_LAT TD9635_LON TD9635_WIND TD9635_PRES TD9635_ROCI NEUMANN_LAT NEUMANN_LON NEUMANN_CLASS NEUMANN_WIND NEUMANN_PRES MLC_LAT MLC_LON MLC_CLASS MLC_WIND MLC_PRES USA_GUST BOM_GUST BOM_GUST_PER REUNION_GUST REUNION_GUST_PER USA_SEAHGT USA_SEARAD_NE USA_SEARAD_SE USA_SEARAD_SW USA_SEARAD_NW STORM_SPEED STORM_DIR
1923021S18115 1923 5 SI WA NOT_NAMED 1923-01-21 06:00:00 NR -17.9000 114.800 main 361 355 _____O________ -1 -17.9000 114.800 99 9.90000 6 227
1923021S18115 1923 5 SI WA NOT_NAMED 1923-01-21 09:00:00 NR -18.1103 114.563 main 355 346 _____P________ -1 -18.1103 114.563 99 6 227
1923021S18115 1923 5 SI WA NOT_NAMED 1923-01-21 12:00:00 NR -18.3242 114.325 main 352 340 _____P________ -1 -18.3242 114.325 99 6 226
1923021S18115 1923 5 SI WA NOT_NAMED 1923-01-21 15:00:00 NR -18.5455 114.088 main 346 331 _____P________ -1 -18.5455 114.088 99 6 225
1923021S18115 1923 5 SI WA NOT_NAMED 1923-01-21 18:00:00 NR -18.7782 113.850 main 331 325 _____P________ -1 -18.7782 113.850 99 7 223
1923021S18115 1923 5 SI WA NOT_NAMED 1923-01-21 21:00:00 NR -19.0261 113.612 main 326 297 _____P________ -1 -19.0261 113.612 99 7 221
1923021S18115 1923 5 SI WA NOT_NAMED 1923-01-22 00:00:00 NR -19.2931 113.375 main 297 270 _____P________ -1 -19.2931 113.375 99 7 219
1923021S18115 1923 5 SI WA NOT_NAMED 1923-01-22 03:00:00 NR -19.5831 113.137 main 273 251 _____P________ -1 -19.5831 113.137 99 8 216
1923021S18115 1923 5 SI WA NOT_NAMED 1923-01-22 06:00:00 NR -19.9000 112.900 main 251 233 _____O________ -1 -19.9000 112.900 99 9.90000 8 214
1923021S18115 1923 5 SI WA NOT_NAMED 1923-01-22 09:00:00 NR -20.2464 112.663 main 233 212 _____P________ -1 -20.2464 112.663 99 8 212
1923021S18115 1923 5 SI WA NOT_NAMED 1923-01-22 12:00:00 NR -20.6195 112.429 main 220 208 _____P________ -1 -20.6195 112.429 99 9 210
1923021S18115 1923 5 SI WA NOT_NAMED 1923-01-22 15:00:00 NR -21.0156 112.199 main 211 206 _____P________ -1 -21.0156 112.199 99 9 208
1923021S18115 1923 5 SI WA NOT_NAMED 1923-01-22 18:00:00 NR -21.4304 111.976 main 211 201 _____P________ -1 -21.4304 111.976 99 9 206
1923021S18115 1923 5 SI WA NOT_NAMED 1923-01-22 21:00:00 NR -21.8602 111.762 main 201 201 _____P________ -1 -21.8602 111.762 99 10 204
1923021S18115 1923 5 SI WA NOT_NAMED 1923-01-23 00:00:00 NR -22.3010 111.560 main 208 208 _____P________ -1 -22.3010 111.560 99 10 202
1923021S18115 1923 5 SI WA NOT_NAMED 1923-01-23 03:00:00 NR -22.7489 111.372 main 225 225 _____P________ -1 -22.7489 111.372 99 10 200
1923021S18115 1923 5 SI WA NOT_NAMED 1923-01-23 06:00:00 NR -23.2000 111.200 main 247 243 _____O________ -1 -23.2000 111.200 99 9.90000 9 200
1923021S18115 1923 5 SI WA NOT_NAMED 1923-01-23 09:00:00 NR -23.6092 111.033 main 256 252 _____P________ -1 -23.6092 111.033 99 9 200
1923021S18115 1923 5 SI WA NOT_NAMED 1923-01-23 12:00:00 NR -24.0215 110.880 main 257 255 _____P________ -1 -24.0215 110.880 99 9 198
1923021S18115 1923 5 SI WA NOT_NAMED 1923-01-23 15:00:00 NR -24.4412 110.743 main 273 273 _____P________ -1 -24.4412 110.743 99 9 195
1923021S18115 1923 5 SI WA NOT_NAMED 1923-01-23 18:00:00 NR -24.8726 110.622 main 288 288 _____P________ -1 -24.8726 110.622 99 9 193
1923021S18115 1923 5 SI WA NOT_NAMED 1923-01-23 21:00:00 NR -25.3199 110.517 main 294 283 _____P________ -1 -25.3199 110.517 99 9 191
1923021S18115 1923 5 SI WA NOT_NAMED 1923-01-24 00:00:00 NR -25.7874 110.428 main 291 288 _____P________ -1 -25.7874 110.428 99 10 188
1923021S18115 1923 5 SI WA NOT_NAMED 1923-01-24 03:00:00 NR -26.2793 110.356 main 288 288 _____P________ -1 -26.2793 110.356 99 10 186
1923021S18115 1923 5 SI WA NOT_NAMED 1923-01-24 06:00:00 NR -26.8000 110.300 main 303 303 _____O________ -1 -26.8000 110.300 99 9.90000 11 185
1923021S18115 1923 5 SI WA NOT_NAMED 1923-01-24 09:00:00 NR -27.3524 110.261 main 321 321 _____P________ -1 -27.3524 110.261 99 11 183
1923021S18115 1923 5 SI WA NOT_NAMED 1923-01-24 12:00:00 NR -27.9338 110.238 main 354 354 _____P________ -1 -27.9338 110.238 99 12 182
1923021S18115 1923 5 SI WA NOT_NAMED 1923-01-24 15:00:00 NR -28.5402 110.227 main 389 389 _____P________ -1 -28.5402 110.227 99 12 0
1923021S18115 1923 5 SI WA NOT_NAMED 1923-01-24 18:00:00 NR -29.1674 110.228 main 408 408 _____P________ -1 -29.1674 110.228 99 13 0
1923021S18115 1923 5 SI WA NOT_NAMED 1923-01-24 21:00:00 NR -29.8112 110.238 main 432 432 _____P________ -1 -29.8112 110.238 99 13 179
1923021S18115 1923 5 SI WA NOT_NAMED 1923-01-25 00:00:00 NR -30.4675 110.254 main 454 454 _____P________ -1 -30.4675 110.254 99 13 178
1923021S18115 1923 5 SI WA NOT_NAMED 1923-01-25 03:00:00 NR -31.1318 110.276 main 462 462 _____P________ -1 -31.1318 110.276 99 13 179
1923021S18115 1923 5 SI WA NOT_NAMED 1923-01-25 06:00:00 NR -31.8000 110.300 main 478 _____O________ -1 -31.8000 110.300 99 9.90000 13 0

About IBTrACS Database

This database is a web-friendly format of International Best Track Archive for Climate Stewardship (IBTrACS), a global best track data archive curated by NOAA dating back to 1842.

Updated: 2021-10-21